Wesley Klaassen

Scout - AZ
4 Apr 2027
Sonntag
Verarbeitung

Persönlichkeit

Anpassungsfähigkeit (14) Ehrgeiz (4) Kontroverse (10) Loyalität (6) Druck (15) Professionalität (3) Fairness (13) Temperament (11)

Profil

Trainerstil Demokratisch
Lizenz Kontinentale A
Entschlossenheit 14
Menschenführung 12
Motivation 8
Disziplin 9
Arbeitszufriedenheit
50%
Ermüdung
0%
Rolle Scout
Gehalt 54.5K p/W
Vertrag 14.03.2028

Leistung

Verhalten Normal
Trainingseffektivität
19%
Spielerentwicklung
45%
Verletzungsprävention
70%
Taktische Umsetzung
35%

Letzte Ereignisse

Spieler begutachtet jetzt
Nahm an einer Scouting-Besprechung teil jetzt
Empfahl ein Transferziel jetzt
Spieler begutachtet jetzt
Spieler begutachtet jetzt
Spieler begutachtet jetzt
Spieler begutachtet 7T her
Spieler begutachtet 7T her

Aktuell beobachtet

130
Spieler Verein Status Fähigkeit Vertrauen Beobachtet Zuletzt beobachtet Letzte Stimme
Ilay Camara Anderlecht Aktiv 132 / 128 40% 2 03.04.2027 -
Cesar Corona Veracruz Aktiv 145 / 138 40% 10 03.04.2027 -
Simon Eriksson Racing Santander Aktiv 115 / 124 40% 2 02.04.2027 -
Gonzalo Crettaz NEC Aktiv 132 / 127 40% 3 02.04.2027 -
Ilias Sebaoui Sint-Truiden Aktiv 132 / 123 40% 2 02.04.2027 -
Brian Rodríguez Club America Aktiv 129 / 131 40% 3 02.04.2027 -
Julian Brandt Ajax Aktiv 153 / 146 40% 1 02.04.2027 -
Mathieu Patouillet Stade Brestois Aktiv 120 / 124 40% 1 02.04.2027 -
Adriano Bertaccini Anderlecht Aktiv 121 / 125 40% 7 31.03.2027 -
Roger Brugué Levante Aktiv 134 / 127 40% 4 31.03.2027 -
Carlos Rodríguez Cruz Azul Aktiv 144 / 143 40% 3 31.03.2027 -
Efraín Álvarez Guadalajara Aktiv 126 / 127 40% 8 30.03.2027 -
Agustín Palavecino Cruz Azul Aktiv 148 / 129 40% 2 30.03.2027 -
Daniel Muñoz Racing Genk Aktiv 145 / 142 40% 1 30.03.2027 -
Tristan Degreef Anderlecht Aktiv 131 / 125 40% 2 29.03.2027 -
Demarai Gray Birmingham Aktiv 128 / 128 40% 1 29.03.2027 -
Timothy Kompany Mouscron Aktiv 136 / 125 40% 6 28.03.2027 -
Fernando Valenzuela Queretaro Aktiv 131 / 124 40% 3 28.03.2027 -
Majid Dejagah Gostaresh Foulad Aktiv 134 / 135 40% 1 28.03.2027 -
Alejandro Zendejas Club America Aktiv 146 / 146 40% 1 27.03.2027 -
Soufiane Rahimi Al Ain Aktiv 146 / 143 40% 4 26.03.2027 -
Fashion Sakala Al-Fayha Aktiv 137 / 130 40% 2 26.03.2027 -
Adriel Torreense Aktiv 116 / 116 40% 3 26.03.2027 -
Oli McBurnie Hull City Aktiv 134 / 130 40% 3 26.03.2027 -
Michael Cooper Sheffield United Aktiv 130 / 130 40% 3 26.03.2027 -
Luís Esteves Atlas Aktiv 125 / 134 40% 2 26.03.2027 -
Mario Stroeykens Anderlecht Aktiv 131 / 128 40% 1 26.03.2027 -
Dany Mota Monza Aktiv 132 / 134 40% 5 25.03.2027 -
Haissem Hassan Bloemfontein Celtic Aktiv 141 / 137 40% 2 23.03.2027 -
Ryotaro Ito Sint-Truiden Aktiv 124 / 127 40% 1 23.03.2027 -
Marcelo Allende Mamelodi Sundowns Aktiv 136 / 126 40% 1 19.03.2027 -
Dries Fellaini KV Oostende Aktiv 124 / 126 40% 2 17.03.2027 -
Malcom Al Jazira Aktiv 157 / 146 40% 1 17.03.2027 -
Thibaud Verlinden OH Leuven Aktiv 121 / 124 40% 1 16.03.2027 -
Luca Orellano Monterrey Aktiv 136 / 129 40% 2 15.03.2027 -
Stav Toriel Hapoel Tel Aviv Aktiv 137 / 122 40% 6 15.03.2027 -
Dom Ballard Leyton Orient Aktiv 121 / 127 40% 1 15.03.2027 -
Rafiu Durosinmi Racing Genk Aktiv 137 / 133 40% 14 14.03.2027 -
Chupete Málaga Aktiv 125 / 134 40% 7 14.03.2027 -
Jamie Cumming Oxford United Aktiv 121 / 121 40% 2 13.03.2027 -
Anthony Patterson Wrexham Aktiv 129 / 128 40% 2 13.03.2027 -
Luciano Gondou CSKA Moscow Aktiv 125 / 126 40% 4 13.03.2027 -
Bernardo Fontes Braga Aktiv 126 / 134 40% 1 13.03.2027 -
Yanis Begraoui Estoril Praia Aktiv 135 / 137 40% 1 13.03.2027 -
Matthieu Epolo Standard Liege Aktiv 121 / 126 40% 4 09.03.2027 -
Ruslan Neshcheret Dynamo Kyiv Aktiv 129 / 130 40% 2 09.03.2027 -
Beau Reus Waasland-Beveren Aktiv 128 / 125 40% 1 09.03.2027 -
Jonmi Magunagoitia Eibar Aktiv 128 / 123 40% 3 08.03.2027 -
Cezary Miszta Rio Ave Aktiv 135 / 132 40% 1 08.03.2027 -
Andreas Jungdal Westerlo Aktiv 118 / 123 40% 1 07.03.2027 -
Luka Jović AEK Aktiv 132 / 142 40% 1 07.03.2027 -
Gonzalo Plata Dinamo Moscow Aktiv 129 / 134 40% 2 06.03.2027 -
Amir Hossein Hosseinzadeh Tractor Aktiv 138 / 134 40% 2 06.03.2027 -
Afimico Pululu Al-Hazem Aktiv 140 / 132 40% 9 05.03.2027 -
Lazar Carević Famalicao Aktiv 130 / 132 40% 4 03.03.2027 -
Josh Keeley Luton Town Aktiv 128 / 128 40% 2 03.03.2027 -
Guilherme Fernandes Córdoba Aktiv 134 / 132 40% 1 01.03.2027 -
Juan Diego Castillo Vitoria Guimaraes Aktiv 121 / 115 40% 1 28.02.2027 -
Grégoire Coudert Burnley Aktiv 135 / 131 40% 2 27.02.2027 -
Kauã Elias Shakhtar Aktiv 134 / 136 40% 3 27.02.2027 -
Moussa Dembélé Al-Ettifaq Aktiv 141 / 127 40% 3 25.02.2027 -
Michy Fellaini KV Oostende Aktiv 142 / 133 40% 6 23.02.2027 -
Matěj Kovář PSV Aktiv 134 / 142 40% 3 23.02.2027 -
Edoardo Corvi Parma Aktiv 134 / 136 40% 1 23.02.2027 -
Erik Prekop Gornik Zabrze Aktiv 126 / 126 40% 2 22.02.2027 -
Rey Manaj Sivasspor Aktiv 124 / 126 40% 1 22.02.2027 -
Tomoki Hayakawa Feyenoord Abgelehnt 145 / 138 40% 1 21.02.2027 Mehr Infos nötig
Carl Rushworth Coventry City Aktiv 143 / 137 40% 1 21.02.2027 -
Diego Rossi Monterrey Aktiv 144 / 129 40% 1 18.02.2027 -
Danylo Sikan Anderlecht Aktiv 128 / 123 40% 8 16.02.2027 -
Percy Erasmus SuperSport United Aktiv 126 / 123 40% 4 15.02.2027 -
Aral Şimşir Trabzonspor Aktiv 128 / 128 40% 3 15.02.2027 -
Ismael Díaz Leon Aktiv 130 / 134 40% 2 14.02.2027 -
Elia Caprile Cagliari Aktiv 147 / 146 40% 2 13.02.2027 -
Igor Nikić Mirandés Aktiv 115 / 113 40% 1 13.02.2027 -
Radek Vítek Middlesbrough Aktiv 134 / 137 40% 1 11.02.2027 -
Alexis Vega Toluca Aktiv 155 / 141 40% 1 10.02.2027 -
Patrick Sequeira Casa Pia Aktiv 131 / 129 40% 1 06.02.2027 -
Robin Risser RC Lens Aktiv 138 / 142 40% 1 06.02.2027 -
Diber Cambindo Leon Aktiv 131 / 120 40% 1 02.02.2027 -
Yousef Salech Cardiff City Aktiv 130 / 119 40% 3 25.01.2027 -
Etiosa Ighodaro Kaizer Chiefs Aktiv 120 / 118 40% 1 25.01.2027 -
Fernand Gouré Westerlo Aktiv 112 / 110 40% 3 23.01.2027 -
José Manuel López Palmeiras Aktiv 135 / 138 40% 1 23.01.2027 -
Myron van Brederode KV Mechelen Aktiv 126 / 123 40% 4 18.01.2027 -
Jakob Napoleon Romsaas Charleroi Aktiv 114 / 126 40% 3 11.01.2027 -
Florián Monzón Atlas Aktiv 126 / 117 40% 5 06.01.2027 -
Brayan León Mamelodi Sundowns Verloren 125 / 122 40% 3 06.01.2027 -
Josh Coburn Millwall Aktiv 119 / 115 40% 2 05.01.2027 -
Yvandro Borges Sanches Heracles Aktiv 107 / 117 76% 1 01.01.2027 Befürworten
Luka Kulenović Heracles Aktiv 113 / 118 40% 2 26.12.2026 -
Chukwubuikem Ikwuemesi OH Leuven Aktiv 125 / 118 40% 6 25.12.2026 -
Zayd El Kandoussi Lokeren Aktiv 106 / 112 40% 1 23.12.2026 -
Camilo Durán Bloemfontein Celtic Aktiv 121 / 113 40% 3 13.12.2026 -
Ammar Ramadan DAC Dunajska Streda Aktiv 128 / 130 40% 2 07.12.2026 -
Kyan Vaesen OH Leuven Aktiv 108 / 116 40% 1 05.12.2026 -
Evidence Makgopa Orlando Pirates Aktiv 117 / 122 40% 1 03.12.2026 -
Jalen Blesa Rio Ave Aktiv 122 / 112 40% 1 02.12.2026 -
Kaio Jorge Cruzeiro Aktiv 140 / 141 40% 1 30.11.2026 -
Ángel Alarcón Utrecht Aktiv 117 / 127 40% 1 29.11.2026 -
Ryotaro Araki Sint-Truiden Aktiv 112 / 117 40% 5 28.11.2026 -
Luis Vázquez Birmingham Aktiv 126 / 127 40% 1 28.11.2026 -
Matej Trusa DAC Dunajska Streda Aktiv 119 / 104 40% 1 26.11.2026 -
Alejandro Piedrahita Deportivo Pereira Aktiv 115 / 132 40% 3 20.11.2026 -
Nicolás Cordero Aldosivi Aktiv 120 / 115 40% 1 20.11.2026 -
Exequiel Zeballos Boca Juniors Aktiv 142 / 142 40% 2 10.11.2026 -
Talles Magno New York City Aktiv 126 / 123 40% 2 07.11.2026 -
Kein Sato FC Tokyo Aktiv 138 / 122 40% 2 07.11.2026 -
Alan Velasco Boca Juniors Aktiv 138 / 120 40% 2 05.11.2026 -
Isa Sakamoto Westerlo Aktiv 109 / 116 40% 2 04.11.2026 -
Ignacio Russo Tigre Aktiv 135 / 131 40% 1 04.11.2026 -
Jesus Ferreira Seattle Sounders Aktiv 123 / 120 40% 2 29.10.2026 -
Alexander Díaz Deportivo Riestra Aktiv 113 / 112 40% 1 29.10.2026 -
Erik Botheim Malmo FF Aktiv 136 / 117 40% 1 27.10.2026 -
Jefry Zapata Once Caldas Aktiv 120 / 114 40% 2 20.10.2026 -
Franco Fagúndez Estudiantes Aktiv 124 / 114 40% 2 09.10.2026 -
Kévin Denkey FC Cincinnati Aktiv 132 / 119 40% 1 06.10.2026 -
Tomás Chancalay Minnesota United FC Aktiv 128 / 133 40% 1 01.10.2026 -
Luca Martínez Dupuy Godoy Cruz Aktiv 121 / 121 40% 1 27.09.2026 -
Itumeleng Tau Ajax Cape Town Aktiv 113 / 106 40% 1 27.09.2026 -
Romeo Vermant Club Brugge Aktiv 118 / 118 40% 2 23.09.2026 -
Kelvin Yeboah Minnesota United FC Aktiv 132 / 124 40% 1 23.09.2026 -
Nicolò Tresoldi Club Brugge Aktiv 132 / 130 40% 1 22.09.2026 -
Shandre Campbell KV Kortrijk Aktiv 110 / 117 40% 1 17.09.2026 -
Ayoub Jabbari FC Cincinnati Aktiv 113 / 111 40% 1 17.09.2026 -
Martín Ojeda Orlando City Aktiv 141 / 128 40% 1 11.09.2026 -
Bénie Traoré New York City Aktiv 120 / 120 40% 1 09.09.2026 -
Justo Giani Universidad Catolica Aktiv 116 / 123 40% 1 07.09.2026 -
Beto Everton Aktiv 129 / 129 40% 1 02.08.2026 -
Dwight McNeil Crystal Palace Aktiv 138 / 140 40% 1 01.08.2026 -